createdAt,value
2019-03-29T00:00:16.324Z,8.03
2019-03-29T00:02:44.777Z,8.25
2019-03-29T00:05:13.081Z,8.18
2019-03-29T00:07:41.966Z,7.97
2019-03-29T00:10:10.610Z,7.53
2019-03-29T00:12:39.012Z,7.85
2019-03-29T00:15:08.072Z,7.87
2019-03-29T00:17:36.741Z,7.37
2019-03-29T00:20:06.889Z,8.60
2019-03-29T00:22:35.245Z,8.38
2019-03-29T00:25:03.627Z,8.78
2019-03-29T00:27:32.002Z,7.47
2019-03-29T00:30:00.370Z,8.88
2019-03-29T00:32:28.768Z,8.05
2019-03-29T00:34:57.146Z,7.80
2019-03-29T00:37:25.530Z,8.43
2019-03-29T00:39:53.905Z,8.28
2019-03-29T00:42:22.304Z,8.25
2019-03-29T00:44:50.676Z,8.55
2019-03-29T00:47:19.076Z,8.85
2019-03-29T00:49:47.438Z,8.30
2019-03-29T00:52:16.814Z,8.68
2019-03-29T00:54:45.302Z,8.25
2019-03-29T00:57:13.715Z,9.00
2019-03-29T00:59:42.087Z,9.28
2019-03-29T01:02:10.632Z,9.15
2019-03-29T01:04:39.010Z,9.55
2019-03-29T01:07:07.383Z,8.83
2019-03-29T01:09:35.789Z,9.45
2019-03-29T01:12:04.164Z,9.50
2019-03-29T01:14:32.545Z,9.98
2019-03-29T01:17:00.915Z,10.65
2019-03-29T01:19:29.902Z,9.65
2019-03-29T01:21:58.265Z,9.50
2019-03-29T01:24:26.672Z,8.98
2019-03-29T01:26:55.045Z,10.25
2019-03-29T01:29:23.441Z,8.70
2019-03-29T01:31:51.800Z,8.83
2019-03-29T01:34:20.203Z,8.73
2019-03-29T01:36:48.562Z,8.70
2019-03-29T01:39:17.003Z,8.05
2019-03-29T01:41:45.556Z,9.23
2019-03-29T01:44:13.958Z,8.08
2019-03-29T01:46:42.336Z,9.50
2019-03-29T01:49:10.751Z,8.33
2019-03-29T01:51:39.165Z,8.33
2019-03-29T01:54:07.560Z,8.73
2019-03-29T01:56:35.924Z,8.60
2019-03-29T01:59:04.376Z,9.55
2019-03-29T02:01:32.766Z,7.65
2019-03-29T02:04:01.241Z,7.62
2019-03-29T02:06:29.629Z,9.13
2019-03-29T02:08:58.041Z,8.20
2019-03-29T02:11:26.537Z,9.30
2019-03-29T02:13:55.029Z,8.93
2019-03-29T02:16:23.433Z,9.35
2019-03-29T02:18:51.855Z,8.85
2019-03-29T02:21:20.243Z,9.50
2019-03-29T02:23:48.745Z,9.53
2019-03-29T02:26:17.101Z,9.35
2019-03-29T02:28:45.497Z,8.70
2019-03-29T02:31:13.942Z,9.18
2019-03-29T02:33:42.337Z,9.80
2019-03-29T02:36:10.764Z,8.65
2019-03-29T02:38:54.080Z,9.53
2019-03-29T02:41:09.730Z,9.33
2019-03-29T02:43:38.671Z,9.45
2019-03-29T02:46:07.362Z,9.85
2019-03-29T02:48:35.921Z,8.23
2019-03-29T02:51:04.751Z,8.40
2019-03-29T02:53:33.648Z,9.38
2019-03-29T02:56:02.059Z,8.00
2019-03-29T02:58:30.558Z,7.47
2019-03-29T03:00:58.980Z,8.00
2019-03-29T03:03:27.373Z,7.40
2019-03-29T03:05:55.787Z,8.23
2019-03-29T03:08:24.173Z,7.65
2019-03-29T03:10:52.598Z,8.85
2019-03-29T03:13:20.997Z,9.30
2019-03-29T03:15:49.507Z,9.00
2019-03-29T03:18:17.864Z,8.58
2019-03-29T03:20:46.278Z,8.20
2019-03-29T03:23:14.787Z,8.80
2019-03-29T03:25:43.219Z,8.98
2019-03-29T03:28:11.609Z,8.73
2019-03-29T03:30:40.048Z,8.90
2019-03-29T03:33:08.501Z,8.95
2019-03-29T03:35:37.018Z,9.03
2019-03-29T03:38:05.445Z,8.70
2019-03-29T03:40:33.882Z,9.63
2019-03-29T03:43:02.350Z,9.28
2019-03-29T03:45:30.786Z,8.75
2019-03-29T03:47:59.183Z,8.55
2019-03-29T03:50:46.996Z,7.60
2019-03-29T03:53:15.368Z,9.80
2019-03-29T03:55:43.769Z,10.80
2019-03-29T03:58:12.318Z,10.28
2019-03-29T04:00:55.549Z,11.93
2019-03-29T04:03:24.069Z,12.10
2019-03-29T04:05:52.460Z,11.20
2019-03-29T04:08:20.878Z,11.08
2019-03-29T04:10:49.246Z,11.53
2019-03-29T04:13:17.618Z,10.40
2019-03-29T04:15:46.025Z,10.25
2019-03-29T04:18:16.094Z,10.08
2019-03-29T04:20:44.480Z,10.48
2019-03-29T04:23:12.845Z,9.25
2019-03-29T04:25:41.267Z,9.93
2019-03-29T04:28:09.633Z,10.78
2019-03-29T04:30:38.020Z,10.65
2019-03-29T04:33:10.833Z,11.00
2019-03-29T04:35:36.520Z,11.73
2019-03-29T04:38:04.825Z,9.90
2019-03-29T04:40:33.219Z,10.45
2019-03-29T04:43:01.619Z,9.53
2019-03-29T04:45:30.013Z,9.90
2019-03-29T04:47:58.404Z,11.05
2019-03-29T04:50:28.001Z,9.55
2019-03-29T04:52:56.370Z,10.18
2019-03-29T04:55:24.779Z,10.10
2019-03-29T04:57:53.133Z,9.68
2019-03-29T05:00:21.623Z,10.15
2019-03-29T05:02:50.013Z,10.32
2019-03-29T05:05:18.408Z,10.25
2019-03-29T05:07:46.784Z,9.55
2019-03-29T05:10:21.445Z,10.32
2019-03-29T05:12:45.208Z,11.33
2019-03-29T05:15:13.590Z,13.85
2019-03-29T05:17:41.989Z,13.18
2019-03-29T05:20:10.365Z,14.93
2019-03-29T05:22:38.768Z,16.48
2019-03-29T05:25:07.185Z,15.80
2019-03-29T05:27:35.597Z,15.98
2019-03-29T05:30:05.323Z,13.58
2019-03-29T05:32:33.710Z,14.20
2019-03-29T05:35:02.155Z,14.50
2019-03-29T05:37:30.552Z,15.43
2019-03-29T05:39:58.931Z,14.25
2019-03-29T05:42:27.388Z,13.75
2019-03-29T05:44:55.796Z,15.50
2019-03-29T05:47:24.179Z,15.50
2019-03-29T05:49:52.551Z,14.63
2019-03-29T05:52:20.938Z,15.48
2019-03-29T05:54:49.320Z,15.05
2019-03-29T05:57:17.720Z,15.72
2019-03-29T05:59:46.101Z,15.20
2019-03-29T06:02:14.497Z,15.98
2019-03-29T06:04:42.877Z,14.85
2019-03-29T06:07:11.276Z,15.50
2019-03-29T06:09:39.657Z,14.35
2019-03-29T06:12:08.055Z,15.75
2019-03-29T06:14:36.446Z,14.75
2019-03-29T06:17:04.832Z,14.78
2019-03-29T06:19:33.207Z,15.48
2019-03-29T06:22:01.612Z,14.40
2019-03-29T06:24:29.976Z,15.28
2019-03-29T06:26:58.373Z,15.63
2019-03-29T06:29:26.743Z,15.68
2019-03-29T06:31:55.158Z,16.55
2019-03-29T06:34:23.520Z,17.50
2019-03-29T06:36:51.920Z,15.38
2019-03-29T06:39:21.389Z,15.38
2019-03-29T06:41:49.938Z,14.43
2019-03-29T06:44:18.321Z,14.20
2019-03-29T06:46:46.720Z,14.75
2019-03-29T06:49:15.103Z,13.88
2019-03-29T06:51:43.512Z,13.75
2019-03-29T06:54:11.900Z,14.90
2019-03-29T06:56:40.304Z,16.32
2019-03-29T06:59:08.699Z,14.78
2019-03-29T07:01:37.096Z,15.63
2019-03-29T07:04:05.471Z,15.55
2019-03-29T07:06:33.875Z,17.05
2019-03-29T07:09:02.256Z,16.50
2019-03-29T07:11:30.654Z,17.90
2019-03-29T07:13:59.035Z,16.57
2019-03-29T07:16:27.439Z,17.95
2019-03-29T07:18:55.816Z,16.80
2019-03-29T07:21:24.201Z,16.73
2019-03-29T07:23:52.599Z,17.45
2019-03-29T07:26:20.980Z,17.07
2019-03-29T07:28:49.403Z,16.35
2019-03-29T07:31:17.782Z,16.62
2019-03-29T07:33:46.116Z,16.65
2019-03-29T07:36:14.500Z,17.73
2019-03-29T07:38:42.904Z,17.10
2019-03-29T07:41:11.298Z,17.73
2019-03-29T07:43:39.699Z,17.02
2019-03-29T07:46:08.075Z,17.32
2019-03-29T07:48:36.463Z,17.50
2019-03-29T07:51:04.908Z,17.73
2019-03-29T07:53:33.229Z,17.98
2019-03-29T07:56:01.608Z,16.60
2019-03-29T07:58:29.999Z,17.65
2019-03-29T08:00:58.378Z,17.42
2019-03-29T08:03:26.775Z,16.67
2019-03-29T08:05:55.144Z,17.07
2019-03-29T08:08:29.101Z,17.87
2019-03-29T08:10:54.217Z,16.75
2019-03-29T08:13:22.666Z,17.00
2019-03-29T08:15:51.030Z,17.67
2019-03-29T08:18:19.468Z,16.93
2019-03-29T08:20:49.472Z,15.93
2019-03-29T08:23:17.867Z,15.40
2019-03-29T08:25:46.246Z,17.42
2019-03-29T08:28:14.646Z,17.60
2019-03-29T08:30:43.024Z,17.65
2019-03-29T08:33:11.492Z,16.57
2019-03-29T08:35:41.466Z,17.37
2019-03-29T08:38:09.763Z,16.27
2019-03-29T08:40:38.138Z,16.52
2019-03-29T08:43:06.544Z,17.10
2019-03-29T08:45:34.925Z,15.53
2019-03-29T08:48:06.509Z,15.98
2019-03-29T08:50:33.359Z,14.90
2019-03-29T08:53:01.896Z,14.90
2019-03-29T08:55:30.276Z,16.05
2019-03-29T08:57:58.903Z,15.32
2019-03-29T09:00:30.595Z,15.40
2019-03-29T09:02:58.988Z,15.50
2019-03-29T09:05:27.399Z,14.38
2019-03-29T09:07:55.802Z,13.75
2019-03-29T09:10:27.619Z,13.85
2019-03-29T09:12:56.028Z,13.30
2019-03-29T09:15:24.446Z,15.13
2019-03-29T09:17:52.844Z,13.25
2019-03-29T09:20:21.227Z,14.68
2019-03-29T09:22:49.644Z,14.68
2019-03-29T09:25:20.887Z,12.45
2019-03-29T09:27:48.067Z,13.05
2019-03-29T09:30:16.457Z,11.55
2019-03-29T09:32:44.866Z,11.48
2019-03-29T09:35:13.267Z,12.05
2019-03-29T09:37:41.665Z,11.95
2019-03-29T09:40:10.060Z,12.13
2019-03-29T09:42:38.447Z,12.55
2019-03-29T09:45:07.472Z,10.88
2019-03-29T09:47:40.171Z,11.43
2019-03-29T09:50:10.060Z,10.20
2019-03-29T09:52:36.928Z,9.53
2019-03-29T09:55:05.380Z,9.43
2019-03-29T09:57:38.199Z,9.88
2019-03-29T10:00:18.017Z,10.15
2019-03-29T10:02:36.738Z,10.57
2019-03-29T10:05:05.962Z,9.10
2019-03-29T10:07:34.322Z,8.75
2019-03-29T10:10:02.724Z,8.60
2019-03-29T10:12:42.802Z,7.92
2019-03-29T10:15:01.140Z,7.65
2019-03-29T10:17:29.514Z,7.83
2019-03-29T10:19:57.979Z,9.10
2019-03-29T10:22:26.361Z,8.63
2019-03-29T10:24:54.764Z,9.43
2019-03-29T10:27:23.141Z,8.40
2019-03-29T10:29:51.551Z,8.40
2019-03-29T10:32:19.918Z,8.23
2019-03-29T10:34:48.311Z,7.45
2019-03-29T10:37:16.675Z,7.67
2019-03-29T10:39:45.087Z,7.67
2019-03-29T10:42:14.349Z,8.13
2019-03-29T10:44:42.746Z,7.33
2019-03-29T10:47:11.135Z,7.03
2019-03-29T10:49:39.531Z,7.83
2019-03-29T10:52:07.908Z,7.95
2019-03-29T10:54:36.303Z,7.67
2019-03-29T10:57:04.673Z,7.50
2019-03-29T10:59:33.079Z,8.25
2019-03-29T11:02:01.446Z,7.03
2019-03-29T11:04:31.834Z,7.10
2019-03-29T11:06:59.865Z,7.03
2019-03-29T11:09:28.261Z,6.20
2019-03-29T11:11:56.626Z,6.37
2019-03-29T11:14:25.027Z,6.00
2019-03-29T11:16:53.390Z,5.95
2019-03-29T11:19:21.819Z,6.67
2019-03-29T11:21:50.211Z,7.37
2019-03-29T11:24:18.611Z,6.30
2019-03-29T11:26:46.985Z,6.10
2019-03-29T11:29:15.392Z,6.20
2019-03-29T11:31:43.768Z,5.53
2019-03-29T11:34:12.175Z,4.95
2019-03-29T11:36:40.533Z,5.62
2019-03-29T11:39:08.924Z,5.85
2019-03-29T11:41:37.307Z,6.15
2019-03-29T11:44:05.679Z,6.42
2019-03-29T11:46:34.071Z,5.47
2019-03-29T11:49:02.527Z,5.85
2019-03-29T11:51:30.915Z,5.42
2019-03-29T11:53:59.354Z,5.83
2019-03-29T11:56:27.747Z,6.03
2019-03-29T11:58:56.122Z,6.25
2019-03-29T12:01:24.536Z,5.20
2019-03-29T12:03:52.911Z,6.08
2019-03-29T12:06:21.302Z,6.75
2019-03-29T12:08:49.673Z,6.67
2019-03-29T12:11:18.078Z,7.47
2019-03-29T12:13:46.501Z,5.92
2019-03-29T12:16:14.898Z,6.45
2019-03-29T12:18:43.278Z,6.45
2019-03-29T12:21:11.656Z,5.80
2019-03-29T12:23:40.026Z,5.65
2019-03-29T12:26:08.419Z,5.47
2019-03-29T12:28:36.787Z,4.80
2019-03-29T12:31:05.176Z,5.30
2019-03-29T12:33:33.557Z,4.95
2019-03-29T12:36:02.019Z,4.78
2019-03-29T12:38:30.439Z,4.65
2019-03-29T12:40:58.839Z,5.55
2019-03-29T12:43:27.206Z,5.58
2019-03-29T12:45:55.611Z,5.47
2019-03-29T12:48:23.986Z,5.45
2019-03-29T12:50:52.383Z,5.75
2019-03-29T12:53:20.767Z,3.85
2019-03-29T12:55:49.151Z,4.03
2019-03-29T12:58:17.524Z,5.03
2019-03-29T13:00:45.921Z,4.58
2019-03-29T13:03:14.282Z,4.45
2019-03-29T13:05:42.762Z,4.70
2019-03-29T13:08:11.127Z,3.83
2019-03-29T13:10:42.396Z,4.30
2019-03-29T13:13:09.547Z,4.25
2019-03-29T13:15:37.918Z,4.97
2019-03-29T13:18:06.304Z,4.58
2019-03-29T13:20:34.695Z,5.60
2019-03-29T13:23:03.065Z,4.83
2019-03-29T13:25:31.474Z,5.78
2019-03-29T13:27:59.858Z,5.30
2019-03-29T13:30:28.322Z,6.00
2019-03-29T13:32:56.680Z,5.75
2019-03-29T13:35:25.078Z,6.05
2019-03-29T13:37:53.456Z,5.90
2019-03-29T13:40:21.915Z,6.25
2019-03-29T13:42:50.232Z,5.90
2019-03-29T13:45:18.624Z,6.00
2019-03-29T13:47:46.987Z,6.20
2019-03-29T13:50:15.392Z,5.85
2019-03-29T13:52:43.881Z,6.53
2019-03-29T13:55:12.231Z,6.55
2019-03-29T13:57:40.630Z,6.25
2019-03-29T14:00:10.826Z,6.62
2019-03-29T14:02:39.228Z,6.85
2019-03-29T14:05:07.605Z,6.70
2019-03-29T14:07:36.000Z,6.42
2019-03-29T14:10:06.610Z,7.12
2019-03-29T14:12:35.008Z,6.97
2019-03-29T14:15:03.545Z,7.35
2019-03-29T14:17:31.940Z,6.72
2019-03-29T14:20:00.390Z,7.25
2019-03-29T14:22:28.711Z,7.15
2019-03-29T14:24:57.086Z,6.70
2019-03-29T14:27:25.491Z,6.80
2019-03-29T14:30:04.133Z,7.50
2019-03-29T14:32:23.919Z,7.47
2019-03-29T14:34:52.287Z,7.95
2019-03-29T14:37:20.689Z,7.53
2019-03-29T14:39:49.063Z,7.35
2019-03-29T14:42:17.461Z,7.97
2019-03-29T14:44:52.371Z,8.68
2019-03-29T14:47:15.888Z,7.17
2019-03-29T14:49:44.264Z,7.80
2019-03-29T14:52:12.670Z,7.90
2019-03-29T14:54:41.040Z,7.37
2019-03-29T14:57:09.447Z,7.78
2019-03-29T14:59:37.819Z,6.97
2019-03-29T15:02:06.206Z,8.63
2019-03-29T15:04:34.587Z,7.95
2019-03-29T15:07:02.963Z,7.83
2019-03-29T15:09:31.337Z,7.67
2019-03-29T15:11:59.728Z,7.60
2019-03-29T15:14:28.095Z,7.37
2019-03-29T15:16:56.488Z,7.83
2019-03-29T15:19:24.864Z,7.37
2019-03-29T15:21:53.266Z,7.90
2019-03-29T15:24:21.641Z,8.98
2019-03-29T15:26:50.022Z,8.78
2019-03-29T15:29:18.395Z,7.55
2019-03-29T15:31:46.803Z,8.85
2019-03-29T15:34:15.180Z,9.20
2019-03-29T15:36:43.570Z,9.38
2019-03-29T15:39:11.946Z,9.13
2019-03-29T15:41:40.420Z,8.58
2019-03-29T15:44:08.793Z,8.83
2019-03-29T15:46:37.182Z,7.85
2019-03-29T15:49:05.492Z,8.90
2019-03-29T15:51:33.929Z,9.03
2019-03-29T15:54:02.319Z,10.28
2019-03-29T15:56:30.737Z,8.73
2019-03-29T15:58:59.177Z,9.48
2019-03-29T16:01:27.554Z,10.08
2019-03-29T16:03:55.981Z,10.00
2019-03-29T16:06:24.371Z,9.40
2019-03-29T16:08:52.796Z,9.85
2019-03-29T16:11:22.550Z,9.95
2019-03-29T16:13:51.103Z,9.50
2019-03-29T16:16:19.498Z,10.43
2019-03-29T16:18:47.933Z,9.40
2019-03-29T16:21:16.311Z,8.55
2019-03-29T16:23:44.743Z,9.90
2019-03-29T16:26:13.144Z,9.40
2019-03-29T16:28:41.541Z,10.68
2019-03-29T16:31:09.949Z,9.38
2019-03-29T16:33:38.358Z,9.23
2019-03-29T16:36:06.757Z,10.20
2019-03-29T16:38:35.165Z,10.23
2019-03-29T16:41:03.620Z,9.95
2019-03-29T16:43:32.021Z,9.35
2019-03-29T16:46:00.548Z,10.38
2019-03-29T16:48:29.090Z,10.13
2019-03-29T16:50:57.494Z,10.23
2019-03-29T16:53:25.913Z,9.48
2019-03-29T16:55:54.312Z,9.30
2019-03-29T16:58:22.734Z,10.32
2019-03-29T17:00:51.212Z,8.25
2019-03-29T17:03:19.723Z,9.73
2019-03-29T17:05:48.146Z,9.45
2019-03-29T17:08:16.587Z,9.80
2019-03-29T17:10:45.191Z,10.23
2019-03-29T17:13:14.025Z,9.43
2019-03-29T17:15:42.589Z,9.08
2019-03-29T17:18:11.092Z,9.38
2019-03-29T17:20:39.507Z,10.25
2019-03-29T17:23:07.967Z,9.53
2019-03-29T17:25:36.449Z,9.55
2019-03-29T17:28:04.869Z,9.08
2019-03-29T17:30:39.500Z,9.10
2019-03-29T17:33:07.919Z,10.13
2019-03-29T17:35:36.315Z,9.08
2019-03-29T17:38:04.869Z,8.68
2019-03-29T17:40:33.350Z,9.63
2019-03-29T17:43:01.784Z,9.35
2019-03-29T17:45:30.219Z,9.45
2019-03-29T17:47:58.639Z,9.93
2019-03-29T17:50:27.064Z,10.20
2019-03-29T17:52:55.474Z,9.50
2019-03-29T17:55:23.903Z,9.30
2019-03-29T17:57:52.307Z,10.15
2019-03-29T18:00:22.350Z,10.03
2019-03-29T18:02:50.729Z,9.95
2019-03-29T18:05:20.064Z,9.48
2019-03-29T18:07:48.459Z,10.70
2019-03-29T18:10:18.141Z,10.10
2019-03-29T18:12:46.620Z,10.20
2019-03-29T18:15:15.237Z,10.48
2019-03-29T18:17:43.639Z,10.30
2019-03-29T18:20:12.037Z,10.00
2019-03-29T18:22:40.427Z,9.70
2019-03-29T18:25:08.927Z,9.65
2019-03-29T18:27:37.323Z,10.38
2019-03-29T18:30:09.289Z,10.10
2019-03-29T18:32:37.934Z,9.30
2019-03-29T18:35:07.333Z,9.63
2019-03-29T18:37:35.804Z,9.28
2019-03-29T18:40:05.684Z,8.90
2019-03-29T18:42:34.158Z,8.68
2019-03-29T18:45:02.846Z,8.68
2019-03-29T18:47:31.264Z,9.48
2019-03-29T18:49:59.684Z,9.40
2019-03-29T18:52:28.107Z,8.78
2019-03-29T18:54:56.569Z,9.65
2019-03-29T18:57:24.971Z,10.55
2019-03-29T18:59:53.390Z,11.90
2019-03-29T19:02:21.789Z,12.07
2019-03-29T19:04:50.265Z,11.33
2019-03-29T19:07:21.983Z,11.12
2019-03-29T19:09:50.463Z,11.55
2019-03-29T19:12:18.880Z,11.00
2019-03-29T19:14:48.655Z,11.20
2019-03-29T19:17:17.181Z,11.10
2019-03-29T19:19:45.735Z,11.80
2019-03-29T19:22:14.272Z,10.40
2019-03-29T19:24:42.661Z,11.20
2019-03-29T19:27:11.090Z,11.10
2019-03-29T19:29:39.553Z,10.95
2019-03-29T19:32:07.984Z,11.00
2019-03-29T19:34:36.415Z,11.43
2019-03-29T19:37:04.848Z,11.68
2019-03-29T19:39:33.286Z,10.23
2019-03-29T19:42:01.712Z,10.68
2019-03-29T19:44:30.133Z,11.05
2019-03-29T19:47:12.473Z,12.30
2019-03-29T19:49:28.673Z,10.65
2019-03-29T19:51:57.104Z,10.63
2019-03-29T19:54:25.511Z,11.85
2019-03-29T19:56:53.992Z,11.45
2019-03-29T19:59:22.941Z,11.20
2019-03-29T20:01:51.384Z,10.95
2019-03-29T20:04:19.798Z,10.82
2019-03-29T20:06:48.319Z,12.58
2019-03-29T20:09:16.794Z,13.32
2019-03-29T20:11:45.255Z,13.68
2019-03-29T20:14:13.686Z,13.70
2019-03-29T20:16:42.090Z,13.98
2019-03-29T20:19:11.640Z,12.85
2019-03-29T20:21:43.257Z,13.50
2019-03-29T20:24:11.713Z,13.72
2019-03-29T20:26:42.414Z,13.30
2019-03-29T20:29:10.811Z,13.88
2019-03-29T20:31:39.263Z,13.90
2019-03-29T20:34:07.794Z,14.47
2019-03-29T20:36:36.222Z,13.88
2019-03-29T20:39:06.998Z,13.05
2019-03-29T20:41:35.793Z,13.28
2019-03-29T20:44:04.198Z,13.25
2019-03-29T20:46:32.626Z,13.75
2019-03-29T20:49:01.044Z,13.65
2019-03-29T20:51:29.480Z,12.65
2019-03-29T20:53:58.008Z,13.03
2019-03-29T20:56:28.835Z,12.07
2019-03-29T20:58:56.557Z,11.68
2019-03-29T21:01:25.022Z,13.60
2019-03-29T21:03:53.416Z,11.80
2019-03-29T21:06:21.839Z,12.70
2019-03-29T21:08:50.246Z,12.98
2019-03-29T21:11:18.671Z,13.85
2019-03-29T21:13:47.215Z,13.00
2019-03-29T21:16:15.811Z,12.55
2019-03-29T21:18:44.227Z,14.33
2019-03-29T21:21:12.684Z,13.30
2019-03-29T21:23:41.108Z,12.85
2019-03-29T21:26:09.534Z,13.83
2019-03-29T21:28:37.956Z,14.20
2019-03-29T21:31:06.400Z,13.60
2019-03-29T21:33:34.946Z,14.13
2019-03-29T21:36:03.431Z,12.75
2019-03-29T21:38:31.902Z,13.15
2019-03-29T21:41:00.342Z,13.03
2019-03-29T21:43:28.798Z,13.53
2019-03-29T21:45:57.239Z,20.00
2019-03-29T21:48:28.898Z,19.23
2019-03-29T21:50:56.110Z,18.60
2019-03-29T21:53:24.645Z,16.82
2019-03-29T21:55:53.123Z,13.85
2019-03-29T21:58:21.496Z,13.98
2019-03-29T22:00:49.898Z,13.98
2019-03-29T22:03:18.322Z,12.33
2019-03-29T22:05:47.386Z,14.65
2019-03-29T22:08:17.972Z,16.45
2019-03-29T22:10:45.936Z,16.05
2019-03-29T22:13:14.401Z,15.78
2019-03-29T22:15:42.773Z,16.82
2019-03-29T22:18:11.166Z,15.98
2019-03-29T22:20:39.607Z,16.25
2019-03-29T22:23:08.006Z,16.82
2019-03-29T22:25:36.459Z,16.30
2019-03-29T22:28:04.846Z,15.48
2019-03-29T22:30:33.152Z,15.30
2019-03-29T22:33:03.992Z,16.02
2019-03-29T22:35:31.596Z,14.83
2019-03-29T22:37:59.984Z,14.63
2019-03-29T22:40:28.370Z,14.87
2019-03-29T22:42:56.776Z,14.00
2019-03-29T22:45:25.143Z,13.95
2019-03-29T22:47:53.546Z,14.87
2019-03-29T22:50:21.958Z,14.83
2019-03-29T22:52:50.327Z,15.23
2019-03-29T22:55:18.786Z,14.85
2019-03-29T22:57:47.246Z,14.95
2019-03-29T23:00:18.832Z,14.35
2019-03-29T23:02:47.308Z,13.78
2019-03-29T23:05:15.681Z,13.55
2019-03-29T23:07:44.079Z,13.20
2019-03-29T23:10:12.484Z,13.62
2019-03-29T23:12:40.880Z,12.85
2019-03-29T23:15:09.272Z,12.70
2019-03-29T23:17:37.676Z,12.43
2019-03-29T23:20:06.207Z,13.70
2019-03-29T23:22:34.532Z,13.70
2019-03-29T23:25:02.986Z,13.90
2019-03-29T23:27:31.380Z,12.45
2019-03-29T23:29:59.754Z,13.70
2019-03-29T23:32:28.164Z,13.15
2019-03-29T23:34:56.539Z,13.50
2019-03-29T23:37:24.948Z,12.95
2019-03-29T23:39:53.303Z,13.03
2019-03-29T23:42:21.682Z,11.85
2019-03-29T23:44:50.096Z,12.75
2019-03-29T23:47:18.480Z,12.93
2019-03-29T23:49:47.189Z,12.35
2019-03-29T23:52:15.666Z,12.90
2019-03-29T23:54:44.055Z,13.20
2019-03-29T23:57:12.448Z,13.43
2019-03-29T23:59:40.842Z,12.98
